sensor_id;sensor_type;location;lat;lon;timestamp;P1;durP1;ratioP1;P2;durP2;ratioP2
46216;SDS011;47258;59.424;13.482;2023-08-20T00:00:42;6.55;;;4.13;;
46216;SDS011;47258;59.424;13.482;2023-08-20T00:03:17;6.28;;;4.75;;
46216;SDS011;47258;59.424;13.482;2023-08-20T00:05:51;5.85;;;5.28;;
46216;SDS011;47258;59.424;13.482;2023-08-20T00:08:24;4.47;;;4.07;;
46216;SDS011;47258;59.424;13.482;2023-08-20T00:11:03;6.55;;;4.70;;
46216;SDS011;47258;59.424;13.482;2023-08-20T00:13:35;6.05;;;5.10;;
46216;SDS011;47258;59.424;13.482;2023-08-20T00:16:09;5.38;;;4.72;;
46216;SDS011;47258;59.424;13.482;2023-08-20T00:18:40;7.93;;;6.05;;
46216;SDS011;47258;59.424;13.482;2023-08-20T00:21:14;5.57;;;5.03;;
46216;SDS011;47258;59.424;13.482;2023-08-20T00:23:48;6.82;;;5.40;;
46216;SDS011;47258;59.424;13.482;2023-08-20T00:26:26;7.85;;;5.47;;
46216;SDS011;47258;59.424;13.482;2023-08-20T00:28:58;9.13;;;4.68;;
46216;SDS011;47258;59.424;13.482;2023-08-20T00:31:37;5.25;;;4.85;;
46216;SDS011;47258;59.424;13.482;2023-08-20T00:34:11;5.72;;;4.90;;
46216;SDS011;47258;59.424;13.482;2023-08-20T00:36:45;10.80;;;5.75;;
46216;SDS011;47258;59.424;13.482;2023-08-20T00:39:21;11.88;;;5.47;;
46216;SDS011;47258;59.424;13.482;2023-08-20T00:41:56;5.55;;;5.05;;
46216;SDS011;47258;59.424;13.482;2023-08-20T00:44:28;5.32;;;4.85;;
46216;SDS011;47258;59.424;13.482;2023-08-20T00:47:00;6.55;;;5.40;;
46216;SDS011;47258;59.424;13.482;2023-08-20T00:49:36;8.63;;;5.65;;
46216;SDS011;47258;59.424;13.482;2023-08-20T00:52:08;5.65;;;5.25;;
46216;SDS011;47258;59.424;13.482;2023-08-20T00:54:39;5.88;;;5.38;;
46216;SDS011;47258;59.424;13.482;2023-08-20T00:57:14;5.85;;;5.35;;
46216;SDS011;47258;59.424;13.482;2023-08-20T00:59:48;8.48;;;5.47;;
46216;SDS011;47258;59.424;13.482;2023-08-20T01:02:20;6.55;;;5.93;;
46216;SDS011;47258;59.424;13.482;2023-08-20T01:04:48;5.53;;;5.03;;
46216;SDS011;47258;59.424;13.482;2023-08-20T01:07:27;6.47;;;5.88;;
46216;SDS011;47258;59.424;13.482;2023-08-20T01:10:07;6.50;;;5.43;;
46216;SDS011;47258;59.424;13.482;2023-08-20T01:12:52;9.82;;;5.35;;
46216;SDS011;47258;59.424;13.482;2023-08-20T01:15:25;9.05;;;5.40;;
46216;SDS011;47258;59.424;13.482;2023-08-20T01:17:57;6.57;;;6.07;;
46216;SDS011;47258;59.424;13.482;2023-08-20T01:20:32;7.38;;;5.68;;
46216;SDS011;47258;59.424;13.482;2023-08-20T01:23:13;5.53;;;5.13;;
46216;SDS011;47258;59.424;13.482;2023-08-20T01:26:23;5.63;;;5.20;;
46216;SDS011;47258;59.424;13.482;2023-08-20T01:29:25;6.40;;;5.55;;
46216;SDS011;47258;59.424;13.482;2023-08-20T01:32:04;5.30;;;4.90;;
46216;SDS011;47258;59.424;13.482;2023-08-20T01:34:35;6.43;;;5.10;;
46216;SDS011;47258;59.424;13.482;2023-08-20T01:37:07;5.40;;;4.90;;
46216;SDS011;47258;59.424;13.482;2023-08-20T01:39:41;6.20;;;5.60;;
46216;SDS011;47258;59.424;13.482;2023-08-20T01:42:16;9.63;;;5.28;;
46216;SDS011;47258;59.424;13.482;2023-08-20T01:44:51;8.32;;;5.13;;
46216;SDS011;47258;59.424;13.482;2023-08-20T01:47:26;5.15;;;4.75;;
46216;SDS011;47258;59.424;13.482;2023-08-20T01:49:58;7.35;;;6.00;;
46216;SDS011;47258;59.424;13.482;2023-08-20T01:52:27;5.50;;;5.10;;
46216;SDS011;47258;59.424;13.482;2023-08-20T01:54:58;6.07;;;5.47;;
46216;SDS011;47258;59.424;13.482;2023-08-20T01:57:30;6.55;;;5.85;;
46216;SDS011;47258;59.424;13.482;2023-08-20T02:00:07;6.47;;;5.97;;
46216;SDS011;47258;59.424;13.482;2023-08-20T02:02:40;7.30;;;5.38;;
46216;SDS011;47258;59.424;13.482;2023-08-20T02:05:13;5.45;;;4.97;;
46216;SDS011;47258;59.424;13.482;2023-08-20T02:07:48;6.00;;;5.45;;
46216;SDS011;47258;59.424;13.482;2023-08-20T02:10:19;6.28;;;5.65;;
46216;SDS011;47258;59.424;13.482;2023-08-20T02:12:54;5.80;;;5.05;;
46216;SDS011;47258;59.424;13.482;2023-08-20T02:15:28;5.35;;;4.95;;
46216;SDS011;47258;59.424;13.482;2023-08-20T02:18:00;9.57;;;5.70;;
46216;SDS011;47258;59.424;13.482;2023-08-20T02:20:32;6.32;;;5.72;;
46216;SDS011;47258;59.424;13.482;2023-08-20T02:23:07;5.18;;;4.78;;
46216;SDS011;47258;59.424;13.482;2023-08-20T02:25:43;7.68;;;5.68;;
46216;SDS011;47258;59.424;13.482;2023-08-20T02:28:19;7.28;;;5.75;;
46216;SDS011;47258;59.424;13.482;2023-08-20T02:30:58;6.07;;;5.57;;
46216;SDS011;47258;59.424;13.482;2023-08-20T02:33:38;5.68;;;5.22;;
46216;SDS011;47258;59.424;13.482;2023-08-20T02:36:11;8.52;;;5.28;;
46216;SDS011;47258;59.424;13.482;2023-08-20T02:38:47;6.30;;;5.65;;
46216;SDS011;47258;59.424;13.482;2023-08-20T02:41:24;5.45;;;4.95;;
46216;SDS011;47258;59.424;13.482;2023-08-20T02:43:56;5.47;;;4.97;;
46216;SDS011;47258;59.424;13.482;2023-08-20T02:46:32;4.97;;;4.55;;
46216;SDS011;47258;59.424;13.482;2023-08-20T02:49:13;5.65;;;5.18;;
46216;SDS011;47258;59.424;13.482;2023-08-20T02:51:47;5.80;;;5.30;;
46216;SDS011;47258;59.424;13.482;2023-08-20T02:54:20;6.28;;;4.70;;
46216;SDS011;47258;59.424;13.482;2023-08-20T02:56:51;4.10;;;3.80;;
46216;SDS011;47258;59.424;13.482;2023-08-20T02:59:24;6.22;;;5.28;;
46216;SDS011;47258;59.424;13.482;2023-08-20T03:02:04;5.55;;;5.07;;
46216;SDS011;47258;59.424;13.482;2023-08-20T03:04:40;4.93;;;4.28;;
46216;SDS011;47258;59.424;13.482;2023-08-20T03:07:11;4.82;;;4.43;;
46216;SDS011;47258;59.424;13.482;2023-08-20T03:09:42;4.72;;;3.92;;
46216;SDS011;47258;59.424;13.482;2023-08-20T03:12:14;4.60;;;4.22;;
46216;SDS011;47258;59.424;13.482;2023-08-20T03:14:50;5.60;;;5.10;;
46216;SDS011;47258;59.424;13.482;2023-08-20T03:17:30;4.05;;;3.83;;
46216;SDS011;47258;59.424;13.482;2023-08-20T03:20:06;5.55;;;4.90;;
46216;SDS011;47258;59.424;13.482;2023-08-20T03:22:38;4.13;;;3.83;;
46216;SDS011;47258;59.424;13.482;2023-08-20T03:25:10;10.65;;;4.47;;
46216;SDS011;47258;59.424;13.482;2023-08-20T03:27:41;5.15;;;4.75;;
46216;SDS011;47258;59.424;13.482;2023-08-20T03:30:16;8.35;;;4.53;;
46216;SDS011;47258;59.424;13.482;2023-08-20T03:32:51;5.10;;;4.70;;
46216;SDS011;47258;59.424;13.482;2023-08-20T03:35:25;5.22;;;4.80;;
46216;SDS011;47258;59.424;13.482;2023-08-20T03:37:53;5.82;;;5.00;;
46216;SDS011;47258;59.424;13.482;2023-08-20T03:42:51;6.25;;;4.57;;
46216;SDS011;47258;59.424;13.482;2023-08-20T03:45:21;8.10;;;5.20;;
46216;SDS011;47258;59.424;13.482;2023-08-20T03:48:03;8.13;;;5.28;;
46216;SDS011;47258;59.424;13.482;2023-08-20T03:50:37;5.50;;;5.00;;
46216;SDS011;47258;59.424;13.482;2023-08-20T03:55:35;5.80;;;5.30;;
46216;SDS011;47258;59.424;13.482;2023-08-20T03:58:06;5.90;;;5.40;;
46216;SDS011;47258;59.424;13.482;2023-08-20T04:00:41;6.90;;;5.97;;
46216;SDS011;47258;59.424;13.482;2023-08-20T04:03:13;6.35;;;5.85;;
46216;SDS011;47258;59.424;13.482;2023-08-20T04:05:49;6.50;;;6.00;;
46216;SDS011;47258;59.424;13.482;2023-08-20T04:08:24;5.95;;;4.70;;
46216;SDS011;47258;59.424;13.482;2023-08-20T04:10:59;8.30;;;5.72;;
46216;SDS011;47258;59.424;13.482;2023-08-20T04:13:31;6.25;;;5.75;;
46216;SDS011;47258;59.424;13.482;2023-08-20T04:16:02;7.05;;;5.78;;
46216;SDS011;47258;59.424;13.482;2023-08-20T04:18:38;7.43;;;5.60;;
46216;SDS011;47258;59.424;13.482;2023-08-20T04:21:10;7.88;;;5.90;;
46216;SDS011;47258;59.424;13.482;2023-08-20T04:23:40;7.68;;;6.75;;
46216;SDS011;47258;59.424;13.482;2023-08-20T04:26:12;6.53;;;5.93;;
46216;SDS011;47258;59.424;13.482;2023-08-20T04:31:14;6.80;;;6.20;;
46216;SDS011;47258;59.424;13.482;2023-08-20T04:33:54;6.82;;;6.10;;
46216;SDS011;47258;59.424;13.482;2023-08-20T04:36:27;8.15;;;5.53;;
46216;SDS011;47258;59.424;13.482;2023-08-20T04:39:02;6.57;;;5.97;;
46216;SDS011;47258;59.424;13.482;2023-08-20T04:41:35;8.00;;;6.35;;
46216;SDS011;47258;59.424;13.482;2023-08-20T04:44:08;7.45;;;6.75;;
46216;SDS011;47258;59.424;13.482;2023-08-20T04:46:43;9.07;;;7.28;;
46216;SDS011;47258;59.424;13.482;2023-08-20T04:49:20;6.50;;;5.68;;
46216;SDS011;47258;59.424;13.482;2023-08-20T04:51:56;8.75;;;7.85;;
46216;SDS011;47258;59.424;13.482;2023-08-20T04:54:32;10.02;;;7.95;;
46216;SDS011;47258;59.424;13.482;2023-08-20T04:57:05;7.80;;;7.07;;
46216;SDS011;47258;59.424;13.482;2023-08-20T04:59:35;11.07;;;7.35;;
46216;SDS011;47258;59.424;13.482;2023-08-20T05:02:07;7.88;;;7.10;;
46216;SDS011;47258;59.424;13.482;2023-08-20T05:04:41;15.43;;;7.45;;
46216;SDS011;47258;59.424;13.482;2023-08-20T05:07:19;7.40;;;6.30;;
46216;SDS011;47258;59.424;13.482;2023-08-20T05:09:53;10.35;;;7.60;;
46216;SDS011;47258;59.424;13.482;2023-08-20T05:12:23;7.47;;;6.78;;
46216;SDS011;47258;59.424;13.482;2023-08-20T05:14:57;9.30;;;5.95;;
46216;SDS011;47258;59.424;13.482;2023-08-20T05:17:29;6.97;;;6.25;;
46216;SDS011;47258;59.424;13.482;2023-08-20T05:20:03;6.55;;;5.90;;
46216;SDS011;47258;59.424;13.482;2023-08-20T05:22:34;8.20;;;6.95;;
46216;SDS011;47258;59.424;13.482;2023-08-20T05:25:07;5.88;;;5.35;;
46216;SDS011;47258;59.424;13.482;2023-08-20T05:27:42;6.70;;;6.00;;
46216;SDS011;47258;59.424;13.482;2023-08-20T05:30:11;7.13;;;5.70;;
46216;SDS011;47258;59.424;13.482;2023-08-20T05:32:44;8.23;;;5.80;;
46216;SDS011;47258;59.424;13.482;2023-08-20T05:35:18;6.20;;;5.68;;
46216;SDS011;47258;59.424;13.482;2023-08-20T05:37:49;8.98;;;6.95;;
46216;SDS011;47258;59.424;13.482;2023-08-20T05:40:21;8.70;;;6.65;;
46216;SDS011;47258;59.424;13.482;2023-08-20T05:42:52;9.20;;;6.53;;
46216;SDS011;47258;59.424;13.482;2023-08-20T05:45:26;7.40;;;5.82;;
46216;SDS011;47258;59.424;13.482;2023-08-20T05:47:59;7.57;;;6.45;;
46216;SDS011;47258;59.424;13.482;2023-08-20T05:50:38;6.38;;;5.78;;
46216;SDS011;47258;59.424;13.482;2023-08-20T05:53:11;6.78;;;6.07;;
46216;SDS011;47258;59.424;13.482;2023-08-20T05:55:46;5.75;;;5.25;;
46216;SDS011;47258;59.424;13.482;2023-08-20T05:58:17;7.55;;;5.28;;
46216;SDS011;47258;59.424;13.482;2023-08-20T06:00:49;7.47;;;5.30;;
46216;SDS011;47258;59.424;13.482;2023-08-20T06:03:21;7.53;;;5.40;;
46216;SDS011;47258;59.424;13.482;2023-08-20T06:06:04;9.88;;;5.93;;
46216;SDS011;47258;59.424;13.482;2023-08-20T06:08:34;6.40;;;5.78;;
46216;SDS011;47258;59.424;13.482;2023-08-20T06:11:09;9.00;;;6.15;;
46216;SDS011;47258;59.424;13.482;2023-08-20T06:13:43;10.50;;;5.50;;
46216;SDS011;47258;59.424;13.482;2023-08-20T06:16:17;8.90;;;5.38;;
46216;SDS011;47258;59.424;13.482;2023-08-20T06:18:49;4.50;;;4.10;;
46216;SDS011;47258;59.424;13.482;2023-08-20T06:21:21;19.48;;;6.70;;
46216;SDS011;47258;59.424;13.482;2023-08-20T06:23:52;10.25;;;6.10;;
46216;SDS011;47258;59.424;13.482;2023-08-20T06:26:22;11.52;;;6.35;;
46216;SDS011;47258;59.424;13.482;2023-08-20T06:28:53;10.65;;;6.65;;
46216;SDS011;47258;59.424;13.482;2023-08-20T06:31:28;11.88;;;6.55;;
46216;SDS011;47258;59.424;13.482;2023-08-20T06:34:00;8.57;;;5.22;;
46216;SDS011;47258;59.424;13.482;2023-08-20T06:36:39;6.30;;;4.88;;
46216;SDS011;47258;59.424;13.482;2023-08-20T06:39:13;8.32;;;5.63;;
46216;SDS011;47258;59.424;13.482;2023-08-20T06:41:45;5.70;;;4.80;;
46216;SDS011;47258;59.424;13.482;2023-08-20T06:44:21;5.85;;;5.05;;
46216;SDS011;47258;59.424;13.482;2023-08-20T06:46:56;7.50;;;4.68;;
46216;SDS011;47258;59.424;13.482;2023-08-20T06:49:30;5.90;;;4.88;;
46216;SDS011;47258;59.424;13.482;2023-08-20T06:52:07;5.55;;;5.03;;
46216;SDS011;47258;59.424;13.482;2023-08-20T06:54:42;6.80;;;4.25;;
46216;SDS011;47258;59.424;13.482;2023-08-20T06:57:19;6.97;;;4.68;;
46216;SDS011;47258;59.424;13.482;2023-08-20T06:59:52;4.38;;;3.97;;
46216;SDS011;47258;59.424;13.482;2023-08-20T07:02:22;4.40;;;3.72;;
46216;SDS011;47258;59.424;13.482;2023-08-20T07:04:53;5.82;;;3.92;;
46216;SDS011;47258;59.424;13.482;2023-08-20T07:07:26;6.53;;;3.78;;
46216;SDS011;47258;59.424;13.482;2023-08-20T07:09:57;3.95;;;3.65;;
46216;SDS011;47258;59.424;13.482;2023-08-20T07:12:29;2.85;;;2.65;;
46216;SDS011;47258;59.424;13.482;2023-08-20T07:14:58;3.90;;;3.42;;
46216;SDS011;47258;59.424;13.482;2023-08-20T07:17:30;6.18;;;3.15;;
46216;SDS011;47258;59.424;13.482;2023-08-20T07:20:01;2.55;;;2.35;;
46216;SDS011;47258;59.424;13.482;2023-08-20T07:22:34;8.02;;;2.92;;
46216;SDS011;47258;59.424;13.482;2023-08-20T07:25:02;2.63;;;2.42;;
46216;SDS011;47258;59.424;13.482;2023-08-20T07:27:32;3.60;;;3.27;;
46216;SDS011;47258;59.424;13.482;2023-08-20T07:30:02;3.65;;;2.55;;
46216;SDS011;47258;59.424;13.482;2023-08-20T07:32:35;2.70;;;2.47;;
46216;SDS011;47258;59.424;13.482;2023-08-20T07:35:05;3.13;;;2.50;;
46216;SDS011;47258;59.424;13.482;2023-08-20T07:37:39;3.30;;;3.10;;
46216;SDS011;47258;59.424;13.482;2023-08-20T07:40:09;2.60;;;2.40;;
46216;SDS011;47258;59.424;13.482;2023-08-20T07:42:42;4.72;;;2.83;;
46216;SDS011;47258;59.424;13.482;2023-08-20T07:45:13;2.88;;;2.63;;
46216;SDS011;47258;59.424;13.482;2023-08-20T07:47:45;3.03;;;1.88;;
46216;SDS011;47258;59.424;13.482;2023-08-20T07:50:16;3.58;;;2.30;;
46216;SDS011;47258;59.424;13.482;2023-08-20T07:52:51;7.50;;;2.47;;
46216;SDS011;47258;59.424;13.482;2023-08-20T07:55:26;7.45;;;2.83;;
46216;SDS011;47258;59.424;13.482;2023-08-20T07:57:57;2.60;;;2.40;;
46216;SDS011;47258;59.424;13.482;2023-08-20T08:00:26;2.70;;;2.50;;
46216;SDS011;47258;59.424;13.482;2023-08-20T08:02:58;4.60;;;2.47;;
46216;SDS011;47258;59.424;13.482;2023-08-20T08:05:29;3.42;;;2.05;;
46216;SDS011;47258;59.424;13.482;2023-08-20T08:08:12;1.85;;;1.75;;
46216;SDS011;47258;59.424;13.482;2023-08-20T08:11:01;6.53;;;2.60;;
46216;SDS011;47258;59.424;13.482;2023-08-20T08:13:34;5.78;;;2.88;;
46216;SDS011;47258;59.424;13.482;2023-08-20T08:16:07;6.13;;;2.47;;
46216;SDS011;47258;59.424;13.482;2023-08-20T08:18:44;1.75;;;1.65;;
46216;SDS011;47258;59.424;13.482;2023-08-20T08:21:15;4.32;;;2.83;;
46216;SDS011;47258;59.424;13.482;2023-08-20T08:23:54;3.20;;;2.30;;
46216;SDS011;47258;59.424;13.482;2023-08-20T08:26:26;2.80;;;2.33;;
46216;SDS011;47258;59.424;13.482;2023-08-20T08:28:57;3.72;;;1.80;;
46216;SDS011;47258;59.424;13.482;2023-08-20T08:31:27;2.50;;;2.30;;
46216;SDS011;47258;59.424;13.482;2023-08-20T08:34:02;2.25;;;2.03;;
46216;SDS011;47258;59.424;13.482;2023-08-20T08:36:38;2.05;;;1.95;;
46216;SDS011;47258;59.424;13.482;2023-08-20T08:39:12;3.47;;;1.90;;
46216;SDS011;47258;59.424;13.482;2023-08-20T08:41:41;3.40;;;2.20;;
46216;SDS011;47258;59.424;13.482;2023-08-20T08:44:13;1.98;;;1.70;;
46216;SDS011;47258;59.424;13.482;2023-08-20T08:46:44;2.15;;;2.05;;
46216;SDS011;47258;59.424;13.482;2023-08-20T08:49:19;3.83;;;1.67;;
46216;SDS011;47258;59.424;13.482;2023-08-20T08:51:58;3.85;;;1.77;;
46216;SDS011;47258;59.424;13.482;2023-08-20T08:54:38;1.60;;;1.50;;
46216;SDS011;47258;59.424;13.482;2023-08-20T08:57:15;3.60;;;1.77;;
46216;SDS011;47258;59.424;13.482;2023-08-20T08:59:50;2.38;;;1.30;;
46216;SDS011;47258;59.424;13.482;2023-08-20T09:02:23;2.58;;;1.92;;
46216;SDS011;47258;59.424;13.482;2023-08-20T09:04:55;1.65;;;1.55;;
46216;SDS011;47258;59.424;13.482;2023-08-20T09:07:31;2.53;;;1.70;;
46216;SDS011;47258;59.424;13.482;2023-08-20T09:10:42;1.98;;;1.00;;
46216;SDS011;47258;59.424;13.482;2023-08-20T09:13:45;1.25;;;1.15;;
46216;SDS011;47258;59.424;13.482;2023-08-20T09:16:39;1.00;;;1.00;;
46216;SDS011;47258;59.424;13.482;2023-08-20T09:19:48;4.63;;;1.40;;
46216;SDS011;47258;59.424;13.482;2023-08-20T09:23:11;1.17;;;1.17;;
46216;SDS011;47258;59.424;13.482;2023-08-20T09:26:30;1.25;;;1.25;;
46216;SDS011;47258;59.424;13.482;2023-08-20T09:29:36;1.33;;;1.23;;
46216;SDS011;47258;59.424;13.482;2023-08-20T09:32:45;1.30;;;1.20;;
46216;SDS011;47258;59.424;13.482;2023-08-20T09:35:51;1.30;;;1.10;;
46216;SDS011;47258;59.424;13.482;2023-08-20T09:38:39;2.40;;;1.30;;
46216;SDS011;47258;59.424;13.482;2023-08-20T09:41:38;3.28;;;1.90;;
46216;SDS011;47258;59.424;13.482;2023-08-20T09:44:19;1.42;;;1.33;;
46216;SDS011;47258;59.424;13.482;2023-08-20T09:46:53;4.72;;;1.35;;
46216;SDS011;47258;59.424;13.482;2023-08-20T09:49:35;1.38;;;1.27;;
46216;SDS011;47258;59.424;13.482;2023-08-20T09:52:09;1.42;;;1.33;;
46216;SDS011;47258;59.424;13.482;2023-08-20T09:54:50;1.58;;;1.33;;
46216;SDS011;47258;59.424;13.482;2023-08-20T09:57:45;2.07;;;1.20;;
46216;SDS011;47258;59.424;13.482;2023-08-20T10:00:29;1.45;;;1.35;;
46216;SDS011;47258;59.424;13.482;2023-08-20T10:03:01;1.70;;;1.60;;
46216;SDS011;47258;59.424;13.482;2023-08-20T10:05:31;1.55;;;1.35;;
46216;SDS011;47258;59.424;13.482;2023-08-20T10:08:05;1.02;;;0.95;;
46216;SDS011;47258;59.424;13.482;2023-08-20T10:10:41;0.98;;;0.98;;
46216;SDS011;47258;59.424;13.482;2023-08-20T10:13:18;1.40;;;1.40;;
46216;SDS011;47258;59.424;13.482;2023-08-20T10:15:50;1.42;;;1.42;;
46216;SDS011;47258;59.424;13.482;2023-08-20T10:18:22;3.80;;;1.70;;
46216;SDS011;47258;59.424;13.482;2023-08-20T10:21:04;1.05;;;1.05;;
46216;SDS011;47258;59.424;13.482;2023-08-20T10:23:40;1.20;;;1.10;;
46216;SDS011;47258;59.424;13.482;2023-08-20T10:26:18;2.55;;;1.00;;
46216;SDS011;47258;59.424;13.482;2023-08-20T10:32:15;1.17;;;1.08;;
46216;SDS011;47258;59.424;13.482;2023-08-20T10:38:29;1.92;;;0.85;;
46216;SDS011;47258;59.424;13.482;2023-08-20T10:41:45;1.10;;;1.10;;
46216;SDS011;47258;59.424;13.482;2023-08-20T10:45:06;1.17;;;1.08;;
46216;SDS011;47258;59.424;13.482;2023-08-20T10:48:31;1.65;;;1.25;;
46216;SDS011;47258;59.424;13.482;2023-08-20T10:51:37;1.17;;;1.10;;
46216;SDS011;47258;59.424;13.482;2023-08-20T10:54:58;2.00;;;1.35;;
46216;SDS011;47258;59.424;13.482;2023-08-20T10:57:58;1.10;;;1.10;;
46216;SDS011;47258;59.424;13.482;2023-08-20T11:01:18;1.38;;;0.93;;
46216;SDS011;47258;59.424;13.482;2023-08-20T11:04:25;1.13;;;1.13;;
46216;SDS011;47258;59.424;13.482;2023-08-20T11:07:17;1.60;;;1.20;;
46216;SDS011;47258;59.424;13.482;2023-08-20T11:10:25;1.67;;;0.93;;
46216;SDS011;47258;59.424;13.482;2023-08-20T11:13:35;0.95;;;0.95;;
46216;SDS011;47258;59.424;13.482;2023-08-20T11:16:34;3.45;;;1.00;;
46216;SDS011;47258;59.424;13.482;2023-08-20T11:19:42;1.67;;;1.33;;
46216;SDS011;47258;59.424;13.482;2023-08-20T11:22:33;1.85;;;1.35;;
46216;SDS011;47258;59.424;13.482;2023-08-20T11:25:39;3.03;;;1.02;;
46216;SDS011;47258;59.424;13.482;2023-08-20T11:28:30;1.45;;;1.05;;
46216;SDS011;47258;59.424;13.482;2023-08-20T11:31:28;0.70;;;0.70;;
46216;SDS011;47258;59.424;13.482;2023-08-20T11:34:24;1.05;;;0.80;;
46216;SDS011;47258;59.424;13.482;2023-08-20T11:40:31;0.70;;;0.70;;
46216;SDS011;47258;59.424;13.482;2023-08-20T11:43:30;4.15;;;1.00;;
46216;SDS011;47258;59.424;13.482;2023-08-20T11:46:18;4.80;;;1.00;;
46216;SDS011;47258;59.424;13.482;2023-08-20T11:49:04;2.70;;;1.00;;
46216;SDS011;47258;59.424;13.482;2023-08-20T11:51:55;1.20;;;1.10;;
46216;SDS011;47258;59.424;13.482;2023-08-20T11:54:46;0.98;;;0.90;;
46216;SDS011;47258;59.424;13.482;2023-08-20T11:57:23;1.25;;;1.20;;
46216;SDS011;47258;59.424;13.482;2023-08-20T11:59:55;3.88;;;1.15;;
46216;SDS011;47258;59.424;13.482;2023-08-20T12:02:36;5.47;;;1.00;;
46216;SDS011;47258;59.424;13.482;2023-08-20T12:05:11;5.57;;;1.00;;
46216;SDS011;47258;59.424;13.482;2023-08-20T12:07:41;0.93;;;0.93;;
46216;SDS011;47258;59.424;13.482;2023-08-20T12:10:30;1.02;;;0.80;;
46216;SDS011;47258;59.424;13.482;2023-08-20T12:13:01;3.20;;;1.02;;
46216;SDS011;47258;59.424;13.482;2023-08-20T12:15:32;1.13;;;1.13;;
46216;SDS011;47258;59.424;13.482;2023-08-20T12:18:06;3.25;;;1.45;;
46216;SDS011;47258;59.424;13.482;2023-08-20T12:20:44;1.42;;;1.08;;
46216;SDS011;47258;59.424;13.482;2023-08-20T12:23:15;2.78;;;1.40;;
46216;SDS011;47258;59.424;13.482;2023-08-20T12:25:55;1.90;;;1.30;;
46216;SDS011;47258;59.424;13.482;2023-08-20T12:28:30;1.10;;;1.10;;
46216;SDS011;47258;59.424;13.482;2023-08-20T12:31:00;1.75;;;1.65;;
46216;SDS011;47258;59.424;13.482;2023-08-20T12:33:30;1.45;;;1.35;;
46216;SDS011;47258;59.424;13.482;2023-08-20T12:36:03;5.32;;;1.30;;
46216;SDS011;47258;59.424;13.482;2023-08-20T12:38:38;2.72;;;2.13;;
46216;SDS011;47258;59.424;13.482;2023-08-20T12:41:27;1.42;;;1.20;;
46216;SDS011;47258;59.424;13.482;2023-08-20T12:44:02;1.45;;;1.35;;
46216;SDS011;47258;59.424;13.482;2023-08-20T12:46:38;3.38;;;1.20;;
46216;SDS011;47258;59.424;13.482;2023-08-20T12:49:18;3.33;;;1.70;;
46216;SDS011;47258;59.424;13.482;2023-08-20T12:51:52;1.05;;;1.00;;
46216;SDS011;47258;59.424;13.482;2023-08-20T12:54:24;3.97;;;1.75;;
46216;SDS011;47258;59.424;13.482;2023-08-20T12:57:04;2.75;;;1.90;;
46216;SDS011;47258;59.424;13.482;2023-08-20T12:59:41;1.60;;;1.38;;
46216;SDS011;47258;59.424;13.482;2023-08-20T13:02:22;1.42;;;1.33;;
46216;SDS011;47258;59.424;13.482;2023-08-20T13:05:00;2.58;;;1.80;;
46216;SDS011;47258;59.424;13.482;2023-08-20T13:07:43;1.50;;;1.42;;
46216;SDS011;47258;59.424;13.482;2023-08-20T13:10:27;4.32;;;1.42;;
46216;SDS011;47258;59.424;13.482;2023-08-20T13:13:18;2.85;;;1.75;;
46216;SDS011;47258;59.424;13.482;2023-08-20T13:16:00;1.70;;;1.60;;
46216;SDS011;47258;59.424;13.482;2023-08-20T13:18:41;1.70;;;1.60;;
46216;SDS011;47258;59.424;13.482;2023-08-20T13:21:14;4.15;;;1.80;;
46216;SDS011;47258;59.424;13.482;2023-08-20T13:23:47;1.60;;;1.50;;
46216;SDS011;47258;59.424;13.482;2023-08-20T13:26:27;3.55;;;1.85;;
46216;SDS011;47258;59.424;13.482;2023-08-20T13:29:02;4.00;;;1.50;;
46216;SDS011;47258;59.424;13.482;2023-08-20T13:31:40;2.83;;;2.05;;
46216;SDS011;47258;59.424;13.482;2023-08-20T13:34:14;3.28;;;1.90;;
46216;SDS011;47258;59.424;13.482;2023-08-20T13:36:52;1.70;;;1.35;;
46216;SDS011;47258;59.424;13.482;2023-08-20T13:39:28;1.65;;;1.55;;
46216;SDS011;47258;59.424;13.482;2023-08-20T13:42:02;1.88;;;1.77;;
46216;SDS011;47258;59.424;13.482;2023-08-20T13:44:40;2.28;;;2.08;;
46216;SDS011;47258;59.424;13.482;2023-08-20T13:47:20;5.70;;;2.63;;
46216;SDS011;47258;59.424;13.482;2023-08-20T13:49:53;6.28;;;2.20;;
46216;SDS011;47258;59.424;13.482;2023-08-20T13:52:32;1.90;;;1.80;;
46216;SDS011;47258;59.424;13.482;2023-08-20T13:55:06;2.67;;;1.92;;
46216;SDS011;47258;59.424;13.482;2023-08-20T13:57:39;1.38;;;1.30;;
46216;SDS011;47258;59.424;13.482;2023-08-20T14:00:13;2.97;;;2.00;;
46216;SDS011;47258;59.424;13.482;2023-08-20T14:02:45;6.78;;;2.00;;
46216;SDS011;47258;59.424;13.482;2023-08-20T14:05:22;1.58;;;1.48;;
46216;SDS011;47258;59.424;13.482;2023-08-20T14:07:58;5.60;;;2.15;;
46216;SDS011;47258;59.424;13.482;2023-08-20T14:10:35;1.98;;;1.80;;
46216;SDS011;47258;59.424;13.482;2023-08-20T14:13:08;4.88;;;2.92;;
46216;SDS011;47258;59.424;13.482;2023-08-20T14:15:50;1.75;;;1.65;;
46216;SDS011;47258;59.424;13.482;2023-08-20T14:18:27;5.00;;;2.00;;
46216;SDS011;47258;59.424;13.482;2023-08-20T14:21:00;3.30;;;1.70;;
46216;SDS011;47258;59.424;13.482;2023-08-20T14:23:34;1.60;;;1.50;;
46216;SDS011;47258;59.424;13.482;2023-08-20T14:26:14;6.63;;;2.60;;
46216;SDS011;47258;59.424;13.482;2023-08-20T14:28:58;5.10;;;2.13;;
46216;SDS011;47258;59.424;13.482;2023-08-20T14:31:39;1.73;;;1.65;;
46216;SDS011;47258;59.424;13.482;2023-08-20T14:34:15;2.00;;;1.90;;
46216;SDS011;47258;59.424;13.482;2023-08-20T14:36:52;2.25;;;2.05;;
46216;SDS011;47258;59.424;13.482;2023-08-20T14:39:31;3.95;;;2.28;;
46216;SDS011;47258;59.424;13.482;2023-08-20T14:42:01;1.42;;;1.33;;
46216;SDS011;47258;59.424;13.482;2023-08-20T14:44:39;2.92;;;1.92;;
46216;SDS011;47258;59.424;13.482;2023-08-20T14:47:14;1.70;;;1.65;;
46216;SDS011;47258;59.424;13.482;2023-08-20T14:49:46;2.97;;;1.83;;
46216;SDS011;47258;59.424;13.482;2023-08-20T14:52:25;3.25;;;1.88;;
46216;SDS011;47258;59.424;13.482;2023-08-20T14:54:59;1.73;;;1.63;;
46216;SDS011;47258;59.424;13.482;2023-08-20T14:57:33;1.48;;;1.40;;
46216;SDS011;47258;59.424;13.482;2023-08-20T15:00:05;1.50;;;1.40;;
46216;SDS011;47258;59.424;13.482;2023-08-20T15:02:42;4.22;;;2.05;;
46216;SDS011;47258;59.424;13.482;2023-08-20T15:05:15;2.15;;;2.05;;
46216;SDS011;47258;59.424;13.482;2023-08-20T15:07:50;3.60;;;2.65;;
46216;SDS011;47258;59.424;13.482;2023-08-20T15:10:24;3.53;;;1.83;;
46216;SDS011;47258;59.424;13.482;2023-08-20T15:13:05;2.55;;;2.08;;
46216;SDS011;47258;59.424;13.482;2023-08-20T15:15:40;1.77;;;1.67;;
46216;SDS011;47258;59.424;13.482;2023-08-20T15:18:16;1.70;;;1.48;;
46216;SDS011;47258;59.424;13.482;2023-08-20T15:20:53;3.30;;;1.60;;
46216;SDS011;47258;59.424;13.482;2023-08-20T15:23:24;1.75;;;1.65;;
46216;SDS011;47258;59.424;13.482;2023-08-20T15:25:57;1.88;;;1.77;;
46216;SDS011;47258;59.424;13.482;2023-08-20T15:28:29;2.80;;;1.63;;
46216;SDS011;47258;59.424;13.482;2023-08-20T15:31:01;2.13;;;2.03;;
46216;SDS011;47258;59.424;13.482;2023-08-20T15:33:41;2.20;;;2.00;;
46216;SDS011;47258;59.424;13.482;2023-08-20T15:36:16;1.85;;;1.75;;
46216;SDS011;47258;59.424;13.482;2023-08-20T15:38:52;1.90;;;1.77;;
46216;SDS011;47258;59.424;13.482;2023-08-20T15:41:28;3.17;;;2.15;;
46216;SDS011;47258;59.424;13.482;2023-08-20T15:44:09;2.08;;;1.90;;
46216;SDS011;47258;59.424;13.482;2023-08-20T15:46:40;1.77;;;1.67;;
46216;SDS011;47258;59.424;13.482;2023-08-20T15:49:13;1.73;;;1.63;;
46216;SDS011;47258;59.424;13.482;2023-08-20T15:51:46;6.32;;;2.33;;